Time;durP1;ratioP1;P1;durP2;ratioP2;P2;SDS_P1;SDS_P2;PMS_P1;PMS_P2;Temp;Humidity;BMP_temperature;BMP_pressure;BME280_temperature;BME280_humidity;BME280_pressure;Samples;Min_cycle;Max_cycle;Signal;HPM_P1;HPM_P2
2021/08/04 00:02:17;;;;;;;3.58;2.17;;;;;;;;;;4980339;28;20140;-78
2021/08/04 00:04:44;;;;;;;3.13;2.20;;;;;;;;;;4985102;28;20473;-77
2021/08/04 00:07:10;;;;;;;7.07;2.60;;;;;;;;;;4998314;28;20041;-78
2021/08/04 00:09:36;;;;;;;5.40;2.92;;;;;;;;;;4983688;28;20137;-78
2021/08/04 00:12:03;;;;;;;3.70;2.60;;;;;;;;;;4984866;28;20051;-78
2021/08/04 00:14:30;;;;;;;2.92;1.90;;;;;;;;;;4984237;28;20153;-78
2021/08/04 00:16:56;;;;;;;4.15;1.90;;;;;;;;;;4980093;28;20560;-78
2021/08/04 00:19:23;;;;;;;5.07;2.78;;;;;;;;;;4986933;28;20485;-78
2021/08/04 00:21:49;;;;;;;3.33;2.47;;;;;;;;;;4981570;28;20082;-78
2021/08/04 00:24:15;;;;;;;4.68;3.30;;;;;;;;;;4985699;28;20145;-78
2021/08/04 00:26:42;;;;;;;3.28;2.70;;;;;;;;;;4983998;28;20142;-78
2021/08/04 00:29:08;;;;;;;3.58;2.03;;;;;;;;;;4984251;28;20453;-77
2021/08/04 00:31:35;;;;;;;3.90;2.83;;;;;;;;;;4985161;28;20078;-78
2021/08/04 00:34:01;;;;;;;2.85;2.10;;;;;;;;;;4997041;28;20088;-78
2021/08/04 00:36:27;;;;;;;5.15;3.03;;;;;;;;;;4985623;28;20407;-78
2021/08/04 00:38:54;;;;;;;4.47;3.22;;;;;;;;;;4982471;28;20078;-77
2021/08/04 00:41:20;;;;;;;6.53;3.33;;;;;;;;;;4981605;28;20047;-78
2021/08/04 00:43:47;;;;;;;4.65;2.10;;;;;;;;;;4981964;28;20117;-78
2021/08/04 00:46:14;;;;;;;5.38;2.40;;;;;;;;;;4980673;28;20457;-78
2021/08/04 00:48:42;;;;;;;4.15;1.75;;;;;;;;;;4983653;28;20141;-78
2021/08/04 00:51:08;;;;;;;3.60;2.88;;;;;;;;;;4976767;28;20129;-78
2021/08/04 00:53:36;;;;;;;3.65;2.85;;;;;;;;;;4983349;28;20248;-78
2021/08/04 00:56:06;;;;;;;4.15;2.80;;;;;;;;;;4980554;28;20129;-78
2021/08/04 00:58:34;;;;;;;4.25;2.25;;;;;;;;;;4981316;28;20159;-78
2021/08/04 01:01:03;;;;;;;2.72;1.55;;;;;;;;;;4982315;28;20413;-78
2021/08/04 01:03:33;;;;;;;2.90;2.13;;;;;;;;;;4983037;28;20551;-78
2021/08/04 01:06:03;;;;;;;3.47;2.63;;;;;;;;;;4980853;28;20071;-79
2021/08/04 01:08:30;;;;;;;5.90;3.53;;;;;;;;;;4983235;28;20078;-78
2021/08/04 01:10:57;;;;;;;6.75;3.80;;;;;;;;;;4980196;28;20051;-78
2021/08/04 01:13:29;;;;;;;4.25;2.85;;;;;;;;;;4978183;28;20729;-78
2021/08/04 01:15:58;;;;;;;2.95;2.30;;;;;;;;;;4985704;28;20153;-78
2021/08/04 01:18:26;;;;;;;2.80;2.00;;;;;;;;;;4980048;28;20054;-78
2021/08/04 01:20:53;;;;;;;6.60;2.65;;;;;;;;;;4982276;28;20042;-78
2021/08/04 01:23:36;;;;;;;5.22;2.40;;;;;;;;;;4974209;28;20986;-78
2021/08/04 01:26:08;;;;;;;3.55;2.92;;;;;;;;;;4982262;28;20586;-78
2021/08/04 01:28:45;;;;;;;4.15;2.60;;;;;;;;;;4979642;28;20053;-78
2021/08/04 01:31:13;;;;;;;5.38;2.97;;;;;;;;;;4980999;28;20074;-78
2021/08/04 01:33:42;;;;;;;3.30;2.85;;;;;;;;;;4983872;28;22502;-78
2021/08/04 01:36:09;;;;;;;4.28;2.90;;;;;;;;;;4980781;28;20042;-78
2021/08/04 01:38:36;;;;;;;4.20;3.03;;;;;;;;;;4984377;28;20441;-78
2021/08/04 01:41:04;;;;;;;5.28;2.75;;;;;;;;;;4984136;28;20692;-79
2021/08/04 01:43:30;;;;;;;5.25;2.95;;;;;;;;;;4983502;28;20747;-79
2021/08/04 01:45:58;;;;;;;5.75;2.35;;;;;;;;;;4981285;28;20058;-79
2021/08/04 01:48:25;;;;;;;3.58;2.42;;;;;;;;;;4996014;28;20054;-79
2021/08/04 01:50:52;;;;;;;4.88;3.03;;;;;;;;;;4979277;28;20053;-78
2021/08/04 01:53:19;;;;;;;2.58;2.13;;;;;;;;;;4977536;28;20128;-78
2021/08/04 01:55:46;;;;;;;7.43;3.28;;;;;;;;;;4982274;28;20137;-78
2021/08/04 01:58:12;;;;;;;4.15;3.40;;;;;;;;;;4980163;28;20054;-78
2021/08/04 02:00:38;;;;;;;5.15;3.00;;;;;;;;;;4984857;28;20449;-78
2021/08/04 02:03:05;;;;;;;5.75;3.70;;;;;;;;;;4980419;28;20050;-78
2021/08/04 02:05:32;;;;;;;4.55;2.88;;;;;;;;;;4982346;28;20042;-78
2021/08/04 02:08:17;;;;;;;2.97;2.22;;;;;;;;;;4978810;28;20740;-78
2021/08/04 02:10:55;;;;;;;5.80;3.65;;;;;;;;;;4984999;28;20124;-78
2021/08/04 02:13:21;;;;;;;4.72;2.80;;;;;;;;;;4983964;28;20046;-78
2021/08/04 02:16:26;;;;;;;4.95;3.65;;;;;;;;;;4997341;28;20046;-78
2021/08/04 02:19:01;;;;;;;4.97;2.90;;;;;;;;;;4984370;28;20141;-78
2021/08/04 02:21:28;;;;;;;7.22;3.70;;;;;;;;;;4980291;28;20401;-78
2021/08/04 02:23:55;;;;;;;5.85;3.28;;;;;;;;;;4987993;28;20074;-78
2021/08/04 02:26:21;;;;;;;6.35;3.67;;;;;;;;;;4980571;28;20129;-78
2021/08/04 02:28:52;;;;;;;6.22;3.15;;;;;;;;;;4987169;28;20655;-77
2021/08/04 02:31:19;;;;;;;4.13;2.30;;;;;;;;;;4990171;28;20536;-78
2021/08/04 02:33:46;;;;;;;6.07;3.20;;;;;;;;;;4986529;28;20050;-78
2021/08/04 02:36:12;;;;;;;4.47;2.63;;;;;;;;;;4979880;28;20051;-78
2021/08/04 02:38:42;;;;;;;6.93;3.70;;;;;;;;;;4980336;28;20056;-78
2021/08/04 02:41:08;;;;;;;4.63;3.17;;;;;;;;;;4993356;28;20061;-78
2021/08/04 02:43:35;;;;;;;4.50;3.78;;;;;;;;;;4984005;28;20139;-78
2021/08/04 02:46:02;;;;;;;6.53;3.45;;;;;;;;;;4985279;28;20078;-79
2021/08/04 02:48:29;;;;;;;4.32;2.58;;;;;;;;;;4987321;28;20061;-79
2021/08/04 02:51:08;;;;;;;3.58;2.50;;;;;;;;;;4982841;28;20073;-79
2021/08/04 02:53:35;;;;;;;5.32;3.10;;;;;;;;;;4986636;28;20045;-79
2021/08/04 02:56:01;;;;;;;7.72;3.55;;;;;;;;;;4986853;28;20086;-79
2021/08/04 02:58:35;;;;;;;4.07;2.78;;;;;;;;;;4982685;28;20134;-79
2021/08/04 03:01:03;;;;;;;6.50;2.88;;;;;;;;;;4985025;28;20404;-79
2021/08/04 03:03:30;;;;;;;5.35;2.90;;;;;;;;;;4986512;28;20137;-79
2021/08/04 03:05:56;;;;;;;4.85;2.65;;;;;;;;;;4988493;28;20105;-79
2021/08/04 03:08:22;;;;;;;4.55;2.55;;;;;;;;;;4986202;28;20150;-79
2021/08/04 03:10:49;;;;;;;3.92;3.08;;;;;;;;;;4982386;28;20046;-79
2021/08/04 03:13:15;;;;;;;4.78;3.15;;;;;;;;;;4982899;28;20126;-79
2021/08/04 03:15:41;;;;;;;3.58;2.50;;;;;;;;;;4984751;28;20133;-79
2021/08/04 03:18:08;;;;;;;4.13;2.88;;;;;;;;;;4984243;28;20519;-78
2021/08/04 03:20:34;;;;;;;5.53;3.95;;;;;;;;;;4985390;28;20137;-79
2021/08/04 03:23:01;;;;;;;3.95;3.00;;;;;;;;;;4983808;28;20057;-78
2021/08/04 03:25:27;;;;;;;4.50;2.60;;;;;;;;;;4982089;28;20057;-79
2021/08/04 03:27:53;;;;;;;3.13;2.60;;;;;;;;;;4981874;28;20085;-79
2021/08/04 03:30:20;;;;;;;4.63;2.45;;;;;;;;;;4988690;28;20086;-78
2021/08/04 03:32:46;;;;;;;4.22;2.65;;;;;;;;;;4984028;28;20054;-78
2021/08/04 03:35:14;;;;;;;7.30;3.72;;;;;;;;;;4983214;28;20038;-78
2021/08/04 03:37:41;;;;;;;2.85;2.55;;;;;;;;;;4979186;28;20076;-78
2021/08/04 03:40:08;;;;;;;3.83;2.95;;;;;;;;;;4979945;28;20061;-78
2021/08/04 03:42:34;;;;;;;4.15;3.17;;;;;;;;;;4983771;28;20146;-78
2021/08/04 03:45:01;;;;;;;7.85;3.22;;;;;;;;;;4983823;28;20610;-79
2021/08/04 03:47:28;;;;;;;3.88;2.42;;;;;;;;;;4981869;28;20121;-79
2021/08/04 03:49:54;;;;;;;3.83;2.13;;;;;;;;;;4983821;28;20053;-79
2021/08/04 03:52:21;;;;;;;5.97;2.35;;;;;;;;;;4979808;28;20046;-79
2021/08/04 03:54:48;;;;;;;3.22;1.63;;;;;;;;;;4985112;28;20129;-79
2021/08/04 03:57:15;;;;;;;4.60;2.67;;;;;;;;;;4981021;28;20122;-79
2021/08/04 03:59:41;;;;;;;4.80;2.60;;;;;;;;;;4984794;28;20660;-79
2021/08/04 04:02:07;;;;;;;4.65;2.72;;;;;;;;;;4979745;28;20561;-77
2021/08/04 04:04:34;;;;;;;4.88;2.67;;;;;;;;;;4982419;28;20141;-76
2021/08/04 04:07:00;;;;;;;4.25;2.42;;;;;;;;;;4980298;28;20133;-77
2021/08/04 04:09:29;;;;;;;3.15;2.47;;;;;;;;;;4985782;28;20070;-77
2021/08/04 04:11:55;;;;;;;3.38;2.00;;;;;;;;;;4979921;28;20089;-77
2021/08/04 04:14:22;;;;;;;2.75;1.70;;;;;;;;;;4982857;28;20049;-77
2021/08/04 04:16:48;;;;;;;2.75;2.08;;;;;;;;;;4984630;28;20505;-76
2021/08/04 04:19:14;;;;;;;2.72;1.70;;;;;;;;;;4983684;28;20169;-79
2021/08/04 04:21:41;;;;;;;2.80;1.85;;;;;;;;;;4983975;28;20548;-77
2021/08/04 04:24:07;;;;;;;5.60;3.35;;;;;;;;;;4981287;28;20042;-82
2021/08/04 04:26:34;;;;;;;3.13;2.50;;;;;;;;;;4981951;28;20058;-80
2021/08/04 04:29:00;;;;;;;3.53;2.47;;;;;;;;;;4984241;28;20069;-79
2021/08/04 04:31:26;;;;;;;4.57;3.25;;;;;;;;;;4983105;28;20100;-79
2021/08/04 04:33:53;;;;;;;5.05;2.38;;;;;;;;;;4981914;28;20137;-79
2021/08/04 04:36:19;;;;;;;4.35;2.65;;;;;;;;;;4984106;28;20690;-81
2021/08/04 04:38:46;;;;;;;4.00;2.08;;;;;;;;;;4985957;28;20050;-80
2021/08/04 04:41:12;;;;;;;3.63;2.28;;;;;;;;;;4983194;28;20042;-80
2021/08/04 04:43:41;;;;;;;3.58;2.40;;;;;;;;;;4980885;28;20141;-79
2021/08/04 04:46:08;;;;;;;2.92;1.90;;;;;;;;;;4975975;28;20142;-81
2021/08/04 04:48:35;;;;;;;4.28;2.25;;;;;;;;;;4983169;28;20619;-80
2021/08/04 04:51:01;;;;;;;5.13;3.15;;;;;;;;;;4982969;28;20050;-80
2021/08/04 04:53:27;;;;;;;4.10;2.33;;;;;;;;;;4982384;28;20165;-80
2021/08/04 04:55:54;;;;;;;5.45;2.95;;;;;;;;;;4973295;28;20123;-80
2021/08/04 04:58:20;;;;;;;3.15;2.60;;;;;;;;;;4983737;28;20058;-79
2021/08/04 05:00:47;;;;;;;3.97;2.17;;;;;;;;;;4985287;28;20133;-80
2021/08/04 05:03:13;;;;;;;2.63;2.00;;;;;;;;;;4983768;28;20141;-79
2021/08/04 05:05:40;;;;;;;4.85;2.67;;;;;;;;;;5000014;28;20051;-80
2021/08/04 05:08:06;;;;;;;3.20;1.80;;;;;;;;;;4983075;28;20053;-79
2021/08/04 05:10:33;;;;;;;3.22;2.13;;;;;;;;;;4981489;28;20432;-80
2021/08/04 05:12:59;;;;;;;4.00;2.83;;;;;;;;;;4986749;28;20058;-80
2021/08/04 05:15:25;;;;;;;5.88;3.42;;;;;;;;;;4980576;28;20937;-80
2021/08/04 05:17:52;;;;;;;4.53;2.25;;;;;;;;;;4984858;28;20046;-80
2021/08/04 05:20:21;;;;;;;4.75;1.98;;;;;;;;;;4975991;28;20069;-80
2021/08/04 05:22:47;;;;;;;1.70;1.10;;;;;;;;;;4984440;28;20596;-80
2021/08/04 05:25:14;;;;;;;5.30;3.08;;;;;;;;;;4984288;28;20077;-80
2021/08/04 05:27:40;;;;;;;3.60;2.72;;;;;;;;;;4983674;28;20046;-81
2021/08/04 05:30:07;;;;;;;4.35;2.45;;;;;;;;;;4979282;28;20054;-80
2021/08/04 05:32:33;;;;;;;3.33;2.45;;;;;;;;;;4982996;28;20407;-81
2021/08/04 05:34:59;;;;;;;3.67;2.60;;;;;;;;;;4986505;28;20415;-80
2021/08/04 05:37:26;;;;;;;4.70;3.17;;;;;;;;;;4990128;28;20489;-81
2021/08/04 05:39:52;;;;;;;7.47;3.00;;;;;;;;;;4974890;28;20471;-81
2021/08/04 05:42:19;;;;;;;4.10;2.72;;;;;;;;;;4980991;28;20084;-80
2021/08/04 05:44:45;;;;;;;4.55;2.78;;;;;;;;;;4980160;28;20129;-81
2021/08/04 05:47:15;;;;;;;3.63;3.17;;;;;;;;;;4976282;28;20456;-81
2021/08/04 05:49:42;;;;;;;5.88;3.45;;;;;;;;;;4979288;28;20102;-81
2021/08/04 05:52:08;;;;;;;4.80;2.20;;;;;;;;;;4983174;28;20079;-80
2021/08/04 05:54:35;;;;;;;4.63;3.00;;;;;;;;;;4980974;28;20101;-80
2021/08/04 05:57:01;;;;;;;3.92;2.88;;;;;;;;;;4982333;28;20129;-81
2021/08/04 05:59:28;;;;;;;3.90;2.83;;;;;;;;;;4983028;28;20051;-80
2021/08/04 06:01:54;;;;;;;6.82;2.75;;;;;;;;;;4977720;28;20472;-80
2021/08/04 06:04:21;;;;;;;3.60;2.45;;;;;;;;;;4978919;28;20096;-81
2021/08/04 06:06:48;;;;;;;4.95;2.92;;;;;;;;;;4979506;28;20579;-80
2021/08/04 06:09:14;;;;;;;3.08;2.50;;;;;;;;;;4984854;28;20078;-80
2021/08/04 06:11:41;;;;;;;3.90;2.90;;;;;;;;;;4982661;28;20142;-81
2021/08/04 06:14:07;;;;;;;3.20;2.33;;;;;;;;;;4982449;28;20145;-80
2021/08/04 06:16:34;;;;;;;7.20;3.33;;;;;;;;;;4983398;28;20629;-81
2021/08/04 06:19:00;;;;;;;5.38;3.00;;;;;;;;;;4979957;28;20046;-80
2021/08/04 06:21:27;;;;;;;5.50;3.15;;;;;;;;;;4985101;28;20236;-80
2021/08/04 06:23:54;;;;;;;5.45;3.80;;;;;;;;;;4979204;28;20137;-80
2021/08/04 06:26:20;;;;;;;4.47;3.63;;;;;;;;;;4979632;28;21033;-81
2021/08/04 06:28:49;;;;;;;3.92;3.30;;;;;;;;;;4983148;28;20131;-81
2021/08/04 06:31:15;;;;;;;6.28;3.83;;;;;;;;;;4984129;28;20129;-81
2021/08/04 06:33:41;;;;;;;4.28;3.72;;;;;;;;;;4981988;28;20058;-81
2021/08/04 06:36:08;;;;;;;5.45;3.45;;;;;;;;;;4981387;28;20050;-81
2021/08/04 06:38:34;;;;;;;4.72;2.95;;;;;;;;;;4979964;28;20819;-80
2021/08/04 06:41:01;;;;;;;5.75;2.70;;;;;;;;;;4981471;28;20061;-81
2021/08/04 06:43:27;;;;;;;5.65;3.90;;;;;;;;;;4980238;28;20551;-80
2021/08/04 06:45:54;;;;;;;6.55;3.83;;;;;;;;;;4978663;28;20051;-81
2021/08/04 06:48:20;;;;;;;4.60;3.05;;;;;;;;;;4987061;28;20046;-80
2021/08/04 06:50:47;;;;;;;3.00;2.38;;;;;;;;;;4980492;28;20109;-81
2021/08/04 06:53:13;;;;;;;7.38;4.57;;;;;;;;;;4979982;28;20073;-80
2021/08/04 06:55:40;;;;;;;3.03;1.90;;;;;;;;;;4975986;28;20057;-81
2021/08/04 06:58:06;;;;;;;5.05;3.45;;;;;;;;;;4981998;28;20057;-80
2021/08/04 07:00:32;;;;;;;5.03;3.83;;;;;;;;;;4982329;28;20123;-81
2021/08/04 07:02:59;;;;;;;7.03;4.85;;;;;;;;;;4982717;28;20146;-80
2021/08/04 07:05:26;;;;;;;5.97;4.15;;;;;;;;;;4979604;28;20101;-80
2021/08/04 07:07:52;;;;;;;6.05;4.60;;;;;;;;;;4987529;28;20105;-81
2021/08/04 07:10:18;;;;;;;7.13;4.05;;;;;;;;;;4979988;28;20956;-81
2021/08/04 07:12:45;;;;;;;9.10;4.78;;;;;;;;;;4983685;28;20145;-81
2021/08/04 07:15:12;;;;;;;7.97;5.00;;;;;;;;;;4987195;28;20058;-81
2021/08/04 07:17:46;;;;;;;8.75;5.55;;;;;;;;;;4984734;28;20053;-82
2021/08/04 07:20:13;;;;;;;3.35;1.90;;;;;;;;;;4986129;28;20085;-80
2021/08/04 07:22:40;;;;;;;2.38;1.95;;;;;;;;;;4987943;28;20066;-81
2021/08/04 07:25:10;;;;;;;8.05;5.78;;;;;;;;;;4986478;28;20053;-80
2021/08/04 07:27:37;;;;;;;8.75;5.28;;;;;;;;;;4982774;28;20282;-81
2021/08/04 07:30:04;;;;;;;7.65;5.72;;;;;;;;;;4983881;28;20145;-80
2021/08/04 07:32:31;;;;;;;4.97;2.22;;;;;;;;;;4987048;28;20085;-81
2021/08/04 07:35:00;;;;;;;4.28;2.38;;;;;;;;;;4980922;28;20101;-80
2021/08/04 07:37:28;;;;;;;7.50;5.47;;;;;;;;;;4986938;28;20141;-82
2021/08/04 07:39:55;;;;;;;5.07;3.60;;;;;;;;;;4986682;28;20100;-81
2021/08/04 07:42:22;;;;;;;6.28;3.97;;;;;;;;;;4986219;28;20129;-81
2021/08/04 07:44:48;;;;;;;18.83;4.78;;;;;;;;;;4980208;28;20050;-82
2021/08/04 07:47:15;;;;;;;8.45;3.17;;;;;;;;;;4986390;28;20061;-82
2021/08/04 07:49:41;;;;;;;9.40;5.50;;;;;;;;;;4979815;28;20501;-82
2021/08/04 07:52:08;;;;;;;7.65;4.80;;;;;;;;;;4990099;28;20072;-80
2021/08/04 07:54:34;;;;;;;6.72;4.88;;;;;;;;;;4979595;28;20053;-82
2021/08/04 07:57:01;;;;;;;6.97;5.00;;;;;;;;;;4988315;28;20059;-81
2021/08/04 07:59:28;;;;;;;10.20;5.22;;;;;;;;;;4980900;28;20086;-82
2021/08/04 08:01:54;;;;;;;5.20;2.72;;;;;;;;;;4985910;28;20072;-82
2021/08/04 08:04:21;;;;;;;10.23;3.45;;;;;;;;;;4982469;28;20062;-82
2021/08/04 08:06:48;;;;;;;10.52;5.45;;;;;;;;;;4988603;28;20039;-82
2021/08/04 08:09:21;;;;;;;9.88;4.22;;;;;;;;;;4979913;28;20049;-82
2021/08/04 08:11:48;;;;;;;7.57;4.18;;;;;;;;;;4987481;28;20061;-83
2021/08/04 08:14:14;;;;;;;8.15;3.95;;;;;;;;;;4983361;28;20046;-82
2021/08/04 08:16:41;;;;;;;7.15;4.45;;;;;;;;;;4984742;28;20134;-82
2021/08/04 08:19:07;;;;;;;6.43;3.25;;;;;;;;;;5001182;28;20042;-82
2021/08/04 08:21:34;;;;;;;5.22;3.10;;;;;;;;;;4987467;28;20101;-82
2021/08/04 08:24:01;;;;;;;5.50;2.30;;;;;;;;;;4976588;28;20053;-82
2021/08/04 08:26:28;;;;;;;5.65;2.55;;;;;;;;;;4985431;28;20058;-82
2021/08/04 08:28:55;;;;;;;4.05;2.40;;;;;;;;;;4987330;28;20486;-82
2021/08/04 08:31:21;;;;;;;2.28;1.80;;;;;;;;;;4987624;28;20145;-82
2021/08/04 08:33:48;;;;;;;3.88;2.38;;;;;;;;;;4982931;28;20059;-81
2021/08/04 08:36:15;;;;;;;6.38;2.67;;;;;;;;;;4983639;28;20082;-81
2021/08/04 08:38:41;;;;;;;2.55;1.98;;;;;;;;;;4983919;28;20545;-81
2021/08/04 08:41:07;;;;;;;4.10;2.10;;;;;;;;;;4986261;28;20488;-81
2021/08/04 08:43:34;;;;;;;3.22;1.85;;;;;;;;;;4984673;28;20118;-82
2021/08/04 08:46:01;;;;;;;10.20;2.28;;;;;;;;;;4982583;28;20073;-82
2021/08/04 08:48:28;;;;;;;6.03;2.05;;;;;;;;;;4981612;28;20081;-81
2021/08/04 08:50:54;;;;;;;2.45;1.70;;;;;;;;;;4987483;28;20074;-76
2021/08/04 08:53:21;;;;;;;1.67;1.10;;;;;;;;;;4983149;28;20503;-76
2021/08/04 08:55:49;;;;;;;2.90;1.48;;;;;;;;;;4981836;28;20054;-74
2021/08/04 08:58:15;;;;;;;6.40;2.33;;;;;;;;;;4978555;28;20145;-75
2021/08/04 09:00:41;;;;;;;4.93;2.30;;;;;;;;;;4979456;28;20137;-75
2021/08/04 09:03:08;;;;;;;4.50;2.45;;;;;;;;;;4985260;28;20049;-75
2021/08/04 09:05:54;;;;;;;2.55;0.95;;;;;;;;;;4981616;28;20046;-76
2021/08/04 09:08:22;;;;;;;7.75;2.65;;;;;;;;;;4979111;28;20185;-76
2021/08/04 09:10:48;;;;;;;5.68;2.65;;;;;;;;;;4980300;28;20050;-75
2021/08/04 09:13:14;;;;;;;3.92;2.90;;;;;;;;;;4979725;28;20393;-75
2021/08/04 09:15:42;;;;;;;2.28;1.05;;;;;;;;;;4982244;28;20096;-75
2021/08/04 09:18:08;;;;;;;5.32;4.03;;;;;;;;;;4980173;28;20093;-74
2021/08/04 09:20:45;;;;;;;3.33;2.13;;;;;;;;;;4981278;28;20086;-75
2021/08/04 09:23:13;;;;;;;5.75;4.55;;;;;;;;;;4974633;28;20042;-77
2021/08/04 09:25:39;;;;;;;6.07;3.83;;;;;;;;;;4981998;28;20145;-81
2021/08/04 09:28:06;;;;;;;6.60;4.55;;;;;;;;;;4981757;28;20457;-80
2021/08/04 09:30:35;;;;;;;7.15;3.10;;;;;;;;;;4983173;28;20059;-81
2021/08/04 09:33:11;;;;;;;6.03;3.75;;;;;;;;;;4987232;28;20054;-81
2021/08/04 09:35:45;;;;;;;8.38;5.03;;;;;;;;;;4985502;28;20038;-81
2021/08/04 09:38:11;;;;;;;8.05;5.47;;;;;;;;;;4979394;28;20691;-77
2021/08/04 09:40:38;;;;;;;13.68;5.68;;;;;;;;;;4982996;28;20521;-76
2021/08/04 09:43:04;;;;;;;5.95;3.95;;;;;;;;;;4978985;28;20136;-75
2021/08/04 09:45:38;;;;;;;9.18;5.72;;;;;;;;;;4980220;28;20043;-75
2021/08/04 09:48:07;;;;;;;8.60;5.22;;;;;;;;;;4981374;28;20054;-74
2021/08/04 09:50:48;;;;;;;7.47;5.22;;;;;;;;;;4985684;28;20058;-74
2021/08/04 09:53:18;;;;;;;6.68;4.60;;;;;;;;;;4985055;28;20092;-75
2021/08/04 09:56:04;;;;;;;7.95;5.07;;;;;;;;;;4983226;28;20576;-75
2021/08/04 09:58:31;;;;;;;6.68;4.03;;;;;;;;;;4981965;28;20054;-74
2021/08/04 10:00:59;;;;;;;8.65;4.13;;;;;;;;;;4986783;28;20054;-76
2021/08/04 10:03:25;;;;;;;3.00;1.95;;;;;;;;;;4987107;28;20129;-74
2021/08/04 10:05:52;;;;;;;9.38;5.15;;;;;;;;;;4982172;28;20675;-73
2021/08/04 10:08:18;;;;;;;8.77;4.38;;;;;;;;;;4981947;28;20044;-74
2021/08/04 10:10:46;;;;;;;11.73;4.53;;;;;;;;;;4984260;28;20135;-73
2021/08/04 10:13:14;;;;;;;7.65;4.07;;;;;;;;;;4982878;28;20045;-73
2021/08/04 10:15:43;;;;;;;9.48;4.20;;;;;;;;;;4981864;28;20781;-74
2021/08/04 10:18:11;;;;;;;4.43;3.35;;;;;;;;;;4981771;28;20089;-73
2021/08/04 10:20:37;;;;;;;7.13;4.55;;;;;;;;;;4981819;28;20061;-73
2021/08/04 10:23:04;;;;;;;5.35;3.92;;;;;;;;;;4984845;28;20050;-72
2021/08/04 10:25:32;;;;;;;12.50;4.50;;;;;;;;;;4980301;28;20100;-74
2021/08/04 10:28:03;;;;;;;6.03;4.28;;;;;;;;;;4977847;28;20081;-73
2021/08/04 10:30:30;;;;;;;5.43;4.00;;;;;;;;;;4981004;28;20070;-74
2021/08/04 10:32:56;;;;;;;7.03;4.45;;;;;;;;;;4986065;28;20057;-74
2021/08/04 10:35:24;;;;;;;7.15;4.35;;;;;;;;;;4982867;28;20150;-73
2021/08/04 10:37:50;;;;;;;7.30;3.50;;;;;;;;;;4983417;28;20534;-73
2021/08/04 10:40:17;;;;;;;8.52;4.38;;;;;;;;;;4982747;28;20050;-75
2021/08/04 10:42:45;;;;;;;9.32;3.88;;;;;;;;;;4984454;28;20404;-72
2021/08/04 10:45:23;;;;;;;9.68;5.18;;;;;;;;;;4985110;28;20050;-72
2021/08/04 10:47:54;;;;;;;5.20;4.15;;;;;;;;;;4982883;28;20062;-74
2021/08/04 10:50:21;;;;;;;11.13;5.70;;;;;;;;;;4985282;28;20476;-78
2021/08/04 10:52:56;;;;;;;6.50;5.13;;;;;;;;;;4982159;28;20077;-79
2021/08/04 10:55:30;;;;;;;8.15;4.60;;;;;;;;;;4984196;28;20134;-79
2021/08/04 10:58:06;;;;;;;6.85;4.40;;;;;;;;;;4980684;28;20060;-79
2021/08/04 11:00:33;;;;;;;6.35;3.58;;;;;;;;;;4989077;28;20060;-80
2021/08/04 11:03:00;;;;;;;8.20;5.25;;;;;;;;;;4980419;28;20042;-79
2021/08/04 11:05:46;;;;;;;6.60;4.70;;;;;;;;;;4984874;28;20054;-78
2021/08/04 11:08:17;;;;;;;9.43;4.43;;;;;;;;;;4985528;28;20137;-79
2021/08/04 11:10:45;;;;;;;6.25;3.15;;;;;;;;;;4987795;28;20448;-79
2021/08/04 11:13:12;;;;;;;6.28;3.92;;;;;;;;;;4983988;28;20054;-79
2021/08/04 11:15:38;;;;;;;5.70;3.92;;;;;;;;;;4989411;28;20050;-78
2021/08/04 11:18:09;;;;;;;6.70;4.15;;;;;;;;;;4997103;28;20138;-79
2021/08/04 11:20:37;;;;;;;7.50;4.15;;;;;;;;;;4987137;28;20077;-79
2021/08/04 11:23:06;;;;;;;6.38;3.55;;;;;;;;;;4976902;28;20043;-80
2021/08/04 11:25:35;;;;;;;5.95;3.28;;;;;;;;;;4983684;28;20475;-79
2021/08/04 11:28:04;;;;;;;7.13;4.22;;;;;;;;;;4983862;28;20104;-80
2021/08/04 11:30:30;;;;;;;6.53;3.97;;;;;;;;;;5003656;28;20078;-80
2021/08/04 11:33:15;;;;;;;10.10;4.20;;;;;;;;;;4983615;28;20490;-79
2021/08/04 11:35:42;;;;;;;7.80;3.80;;;;;;;;;;4986071;28;20456;-82
2021/08/04 11:38:08;;;;;;;7.60;4.75;;;;;;;;;;5000591;28;20102;-80
2021/08/04 11:40:34;;;;;;;9.65;4.13;;;;;;;;;;4985102;28;20684;-79
2021/08/04 11:43:01;;;;;;;7.15;3.30;;;;;;;;;;4985816;28;20111;-80
2021/08/04 11:45:28;;;;;;;7.40;4.38;;;;;;;;;;4985602;28;20047;-80
2021/08/04 11:47:55;;;;;;;5.55;3.63;;;;;;;;;;4982652;28;20051;-79
2021/08/04 11:50:21;;;;;;;5.28;3.20;;;;;;;;;;4986191;28;20050;-80
2021/08/04 11:52:48;;;;;;;4.88;3.63;;;;;;;;;;4978335;28;20122;-79
2021/08/04 11:55:15;;;;;;;4.63;3.33;;;;;;;;;;4985872;28;20138;-79
2021/08/04 11:57:43;;;;;;;6.00;3.55;;;;;;;;;;5002069;28;20046;-79
2021/08/04 12:00:18;;;;;;;7.03;3.47;;;;;;;;;;4987379;28;20046;-79
2021/08/04 12:02:45;;;;;;;7.68;3.55;;;;;;;;;;5003618;28;20646;-79
2021/08/04 12:05:13;;;;;;;6.43;3.15;;;;;;;;;;4987733;28;20088;-79
2021/08/04 12:07:44;;;;;;;5.45;3.28;;;;;;;;;;4988499;28;21344;-79
2021/08/04 12:10:11;;;;;;;4.38;2.88;;;;;;;;;;4988954;28;20077;-79
2021/08/04 12:12:39;;;;;;;6.68;3.80;;;;;;;;;;4980328;28;20142;-79
2021/08/04 12:15:14;;;;;;;6.80;2.53;;;;;;;;;;4987982;28;20473;-79
2021/08/04 12:17:41;;;;;;;3.90;2.40;;;;;;;;;;4977438;28;20052;-78
2021/08/04 12:20:10;;;;;;;7.95;3.45;;;;;;;;;;4986710;28;20048;-79
2021/08/04 12:22:36;;;;;;;5.80;2.85;;;;;;;;;;4977765;28;20081;-79
2021/08/04 12:25:03;;;;;;;4.82;2.17;;;;;;;;;;4984211;28;20452;-79
2021/08/04 12:27:37;;;;;;;4.93;3.08;;;;;;;;;;4989382;28;20213;-79
2021/08/04 12:30:05;;;;;;;6.25;3.25;;;;;;;;;;4988509;28;20050;-79
2021/08/04 12:32:32;;;;;;;6.13;2.97;;;;;;;;;;4981231;28;20133;-80
2021/08/04 12:35:01;;;;;;;5.63;3.75;;;;;;;;;;4987322;28;20133;-80
2021/08/04 12:37:30;;;;;;;3.55;2.63;;;;;;;;;;4983088;28;20134;-79
2021/08/04 12:40:03;;;;;;;7.60;3.40;;;;;;;;;;4985741;28;21224;-80
2021/08/04 12:42:30;;;;;;;5.75;3.03;;;;;;;;;;4999569;28;20058;-80
2021/08/04 12:45:16;;;;;;;7.40;3.05;;;;;;;;;;5001298;28;20078;-80
2021/08/04 12:47:48;;;;;;;7.40;3.80;;;;;;;;;;4986370;28;20088;-80
2021/08/04 12:50:15;;;;;;;9.13;3.35;;;;;;;;;;4984487;28;20336;-80
2021/08/04 12:52:43;;;;;;;8.20;3.92;;;;;;;;;;4982444;28;20058;-79
2021/08/04 12:55:10;;;;;;;4.22;3.22;;;;;;;;;;4983232;28;20125;-80
2021/08/04 12:57:37;;;;;;;5.97;4.18;;;;;;;;;;4986383;28;20054;-79
2021/08/04 13:00:05;;;;;;;1.95;1.25;;;;;;;;;;4985997;28;20049;-80
2021/08/04 13:02:38;;;;;;;5.78;3.88;;;;;;;;;;4982762;28;20145;-80
2021/08/04 13:05:05;;;;;;;7.57;2.65;;;;;;;;;;4982753;28;20488;-79
2021/08/04 13:07:42;;;;;;;4.90;3.53;;;;;;;;;;4984619;28;20053;-81
2021/08/04 13:10:10;;;;;;;8.05;4.20;;;;;;;;;;4984897;28;20397;-81
2021/08/04 13:12:36;;;;;;;5.18;2.55;;;;;;;;;;4981197;28;20056;-79
2021/08/04 13:15:13;;;;;;;5.80;2.83;;;;;;;;;;4984197;28;20139;-80
2021/08/04 13:17:55;;;;;;;4.35;3.10;;;;;;;;;;4984770;28;20544;-81
2021/08/04 13:20:32;;;;;;;10.35;3.45;;;;;;;;;;4984713;28;20480;-80
2021/08/04 13:23:01;;;;;;;4.65;1.95;;;;;;;;;;4982498;28;20082;-79
2021/08/04 13:25:32;;;;;;;4.70;2.90;;;;;;;;;;4983492;28;20052;-80
2021/08/04 13:28:00;;;;;;;10.55;4.60;;;;;;;;;;4986016;28;20113;-79
2021/08/04 13:30:37;;;;;;;6.40;4.45;;;;;;;;;;4984072;28;20050;-79
2021/08/04 13:33:04;;;;;;;6.10;3.20;;;;;;;;;;4984516;28;20056;-79
2021/08/04 13:35:34;;;;;;;8.65;3.20;;;;;;;;;;4980917;28;20106;-79
2021/08/04 13:38:01;;;;;;;7.07;4.75;;;;;;;;;;4983792;28;20054;-79
2021/08/04 13:40:27;;;;;;;7.95;4.95;;;;;;;;;;4980487;28;20070;-80
2021/08/04 13:42:54;;;;;;;6.32;4.40;;;;;;;;;;4982873;28;20077;-79
2021/08/04 13:45:21;;;;;;;6.97;3.38;;;;;;;;;;4980924;28;20046;-79
2021/08/04 13:47:48;;;;;;;10.10;5.10;;;;;;;;;;4980883;28;20073;-80
2021/08/04 13:50:16;;;;;;;10.32;4.60;;;;;;;;;;4980498;28;20135;-81
2021/08/04 13:52:42;;;;;;;5.22;3.65;;;;;;;;;;4982439;28;20728;-80
2021/08/04 13:55:10;;;;;;;4.90;3.85;;;;;;;;;;4978528;28;20353;-80
2021/08/04 13:57:38;;;;;;;8.85;5.00;;;;;;;;;;4980709;28;20142;-79
2021/08/04 14:00:26;;;;;;;4.38;3.03;;;;;;;;;;4983957;28;20043;-79
2021/08/04 14:02:53;;;;;;;5.10;3.90;;;;;;;;;;4982094;28;20050;-80
2021/08/04 14:05:20;;;;;;;6.35;4.93;;;;;;;;;;4983478;28;20046;-79
2021/08/04 14:07:47;;;;;;;2.60;1.98;;;;;;;;;;4983169;28;20509;-79
2021/08/04 14:10:15;;;;;;;6.63;4.22;;;;;;;;;;4986108;28;20046;-78
2021/08/04 14:12:42;;;;;;;5.70;3.83;;;;;;;;;;4983608;28;20042;-79
2021/08/04 14:15:10;;;;;;;7.47;4.03;;;;;;;;;;4988059;28;20061;-79
2021/08/04 14:17:37;;;;;;;6.13;4.10;;;;;;;;;;4979211;28;20558;-79
2021/08/04 14:20:04;;;;;;;12.80;3.47;;;;;;;;;;4988717;28;20153;-78
2021/08/04 14:22:30;;;;;;;6.95;3.63;;;;;;;;;;4984630;28;20125;-78
2021/08/04 14:24:57;;;;;;;6.78;4.15;;;;;;;;;;4989567;28;20047;-79
2021/08/04 14:27:23;;;;;;;6.80;4.88;;;;;;;;;;4981417;28;20129;-79
2021/08/04 14:29:50;;;;;;;7.82;3.58;;;;;;;;;;4992349;28;20049;-79
2021/08/04 14:32:17;;;;;;;7.22;3.35;;;;;;;;;;4989648;28;20136;-78
2021/08/04 14:34:43;;;;;;;5.43;4.40;;;;;;;;;;4982343;28;20070;-78
2021/08/04 14:37:10;;;;;;;8.10;4.15;;;;;;;;;;4986022;28;20053;-79
2021/08/04 14:39:36;;;;;;;6.18;4.90;;;;;;;;;;4990775;28;20097;-79
2021/08/04 14:42:03;;;;;;;6.32;4.45;;;;;;;;;;4988605;28;20081;-80
2021/08/04 14:44:31;;;;;;;7.85;4.10;;;;;;;;;;4992266;28;20055;-80
2021/08/04 14:47:00;;;;;;;9.35;4.25;;;;;;;;;;4989835;28;20154;-79
2021/08/04 14:49:27;;;;;;;6.85;4.25;;;;;;;;;;4995332;28;20085;-80